Time;durP1;ratioP1;P1;durP2;ratioP2;P2;SDS_P1;SDS_P2;PMS_P1;PMS_P2;Temp;Humidity;BMP_temperature;BMP_pressure;BME280_temperature;BME280_humidity;BME280_pressure;Samples;Min_cycle;Max_cycle;Signal;HPM_P1;HPM_P2
2023/03/02 00:01:48;;;;;;;17.75;10.27;;;3.60;99.90;;;;;;5035444;28;20053;-81
2023/03/02 00:04:30;;;;;;;17.58;9.40;;;3.40;99.90;;;;;;5055932;28;20013;-83
2023/03/02 00:07:01;;;;;;;18.73;9.60;;;3.30;99.90;;;;;;5049153;28;20733;-82
2023/03/02 00:09:29;;;;;;;22.38;10.73;;;3.30;99.90;;;;;;5054055;28;20026;-82
2023/03/02 00:11:58;;;;;;;18.45;9.70;;;;;;;;;;5034180;28;20036;-81
2023/03/02 00:14:25;;;;;;;20.40;9.25;;;5.10;99.90;;;;;;5028442;28;20445;-81
2023/03/02 00:16:51;;;;;;;16.65;9.40;;;6.50;99.90;;;;;;5018352;28;20029;-81
2023/03/02 00:19:18;;;;;;;21.27;10.25;;;6.00;99.90;;;;;;5020201;28;20044;-81
2023/03/02 00:21:44;;;;;;;19.77;10.20;;;;;;;;;;5033562;28;20041;-81
2023/03/02 00:24:14;;;;;;;23.15;10.18;;;3.50;99.90;;;;;;5019914;28;20966;-82
2023/03/02 00:26:40;;;;;;;16.70;9.55;;;;;;;;;;5022459;28;20036;-81
2023/03/02 00:29:07;;;;;;;18.02;9.93;;;3.50;99.90;;;;;;5019860;28;20500;-82
2023/03/02 00:31:34;;;;;;;20.35;9.98;;;;;;;;;;5042418;28;20064;-81
2023/03/02 00:34:00;;;;;;;17.20;10.70;;;;;;;;;;5033565;28;20084;-83
2023/03/02 00:36:27;;;;;;;18.50;10.23;;;0.50;99.90;;;;;;5027902;28;20187;-82
2023/03/02 00:38:53;;;;;;;21.38;10.85;;;;;;;;;;5037185;28;20029;-82
2023/03/02 00:41:20;;;;;;;19.23;9.93;;;3.20;99.90;;;;;;5028040;28;20033;-82
2023/03/02 00:43:47;;;;;;;19.33;10.20;;;3.40;99.90;;;;;;5020455;28;20033;-83
2023/03/02 00:46:17;;;;;;;20.13;11.25;;;3.30;99.90;;;;;;5033848;28;22127;-81
2023/03/02 00:48:43;;;;;;;18.38;10.27;;;;;;;;;;5018003;28;20032;-81
2023/03/02 00:51:10;;;;;;;18.80;10.45;;;;;;;;;;5028040;28;20060;-81
2023/03/02 00:53:37;;;;;;;19.92;10.85;;;;;;;;;;5037911;28;20038;-82
2023/03/02 00:56:05;;;;;;;20.05;10.48;;;3.20;99.90;;;;;;5018274;28;20037;-82
2023/03/02 00:58:32;;;;;;;20.60;10.27;;;3.20;99.90;;;;;;5018395;28;20385;-80
2023/03/02 01:00:59;;;;;;;18.08;10.75;;;;;;;;;;5014578;28;20467;-81
2023/03/02 01:03:25;;;;;;;19.45;10.30;;;;;;;;;;5018983;28;20382;-81
2023/03/02 01:05:54;;;;;;;19.25;10.57;;;;;;;;;;5003816;28;20037;-82
2023/03/02 01:08:24;;;;;;;19.42;10.48;;;3.20;99.90;;;;;;5020601;28;20071;-82
2023/03/02 01:10:51;;;;;;;23.08;11.65;;;;;;;;;;5017901;28;20021;-82
2023/03/02 01:13:21;;;;;;;16.40;9.57;;;3.30;99.90;;;;;;5018053;28;20051;-82
2023/03/02 01:15:47;;;;;;;20.67;10.70;;;;;;;;;;5037417;28;20025;-82
2023/03/02 01:18:16;;;;;;;20.05;11.18;;;3.30;99.90;;;;;;5015342;28;20034;-82
2023/03/02 01:20:43;;;;;;;22.52;10.93;;;;;;;;;;5036825;28;20478;-81
2023/03/02 01:23:09;;;;;;;19.52;9.90;;;;;;;;;;5021598;28;20037;-82
2023/03/02 01:25:37;;;;;;;20.58;10.82;;;;;;;;;;5041184;28;20105;-82
2023/03/02 01:28:05;;;;;;;17.45;9.90;;;3.10;99.90;;;;;;5025193;28;20033;-82
2023/03/02 01:30:34;;;;;;;20.02;10.18;;;3.10;99.90;;;;;;5032610;28;20046;-82
2023/03/02 01:33:01;;;;;;;24.58;10.65;;;;;;;;;;5015214;28;20029;-82
2023/03/02 01:35:28;;;;;;;20.67;10.93;;;;;;;;;;5018049;28;20029;-81
2023/03/02 01:37:58;;;;;;;17.83;10.57;;;3.10;99.90;;;;;;5021760;28;20036;-82
2023/03/02 01:40:25;;;;;;;17.70;10.23;;;;;;;;;;5001332;28;20494;-81
2023/03/02 01:42:56;;;;;;;20.70;10.88;;;;;;;;;;5026066;28;20385;-81
2023/03/02 01:45:54;;;;;;;21.50;10.35;;;3.20;99.90;;;;;;5025474;28;20457;-80
2023/03/02 01:48:30;;;;;;;19.50;10.52;;;3.10;99.90;;;;;;5031348;28;20026;-80
2023/03/02 01:51:00;;;;;;;19.80;10.90;;;;;;;;;;5032193;28;20049;-82
2023/03/02 01:53:30;;;;;;;21.55;11.57;;;3.10;99.90;;;;;;5014582;28;20032;-81
2023/03/02 01:56:00;;;;;;;22.48;10.43;;;3.10;99.90;;;;;;5017692;28;20836;-81
2023/03/02 01:58:27;;;;;;;17.42;10.98;;;;;;;;;;5018612;28;20057;-81
2023/03/02 02:00:55;;;;;;;23.65;11.40;;;3.00;99.90;;;;;;5022577;28;20726;-81
2023/03/02 02:03:23;;;;;;;19.70;11.90;;;;;;;;;;5020000;28;20033;-81
2023/03/02 02:06:16;;;;;;;21.95;11.35;;;3.00;99.90;;;;;;5013214;28;20080;-81
2023/03/02 02:08:42;;;;;;;19.65;10.93;;;;;;;;;;5022040;28;20048;-82
2023/03/02 02:11:09;;;;;;;19.38;10.18;;;;;;;;;;5013874;28;20106;-82
2023/03/02 02:13:35;;;;;;;21.33;10.48;;;;;;;;;;5038807;28;20026;-81
2023/03/02 02:16:01;;;;;;;21.67;11.95;;;;;;;;;;5040728;28;20029;-82
2023/03/02 02:18:28;;;;;;;20.45;11.63;;;;;;;;;;5006872;28;20029;-81
2023/03/02 02:20:54;;;;;;;21.42;11.00;;;;;;;;;;5019619;28;20025;-81
2023/03/02 02:23:29;;;;;;;20.40;11.63;;;;;;;;;;5021811;28;20060;-81
2023/03/02 02:26:23;;;;;;;18.05;10.45;;;3.00;99.90;;;;;;5033759;28;20025;-81
2023/03/02 02:29:06;;;;;;;20.55;10.80;;;3.00;99.90;;;;;;5030223;28;20026;-82
2023/03/02 02:31:47;;;;;;;20.17;11.10;;;3.00;99.90;;;;;;5033710;28;20025;-80
2023/03/02 02:34:21;;;;;;;19.48;10.48;;;;;;;;;;5027445;28;20026;-81
2023/03/02 02:36:53;;;;;;;19.60;10.25;;;3.00;99.90;;;;;;5031475;28;20072;-81
2023/03/02 02:39:43;;;;;;;17.75;10.60;;;2.90;99.90;;;;;;5004584;28;20029;-81
2023/03/02 02:42:35;;;;;;;20.52;11.07;;;2.80;99.90;;;;;;5026109;28;20053;-82
2023/03/02 02:45:05;;;;;;;23.67;11.85;;;2.80;99.90;;;;;;5036099;28;20048;-83
2023/03/02 02:48:09;;;;;;;23.73;10.52;;;2.80;99.90;;;;;;5029448;28;20129;-83
2023/03/02 02:50:59;;;;;;;21.52;11.40;;;2.70;99.90;;;;;;5033686;28;20022;-82
2023/03/02 02:53:44;;;;;;;21.88;11.57;;;2.70;99.90;;;;;;5035437;28;20061;-82
2023/03/02 02:56:11;;;;;;;20.45;11.23;;;;;;;;;;5030491;28;20040;-82
2023/03/02 02:58:51;;;;;;;22.00;11.60;;;2.80;99.90;;;;;;5033161;28;20049;-83
2023/03/02 03:01:24;;;;;;;21.30;10.93;;;2.70;99.90;;;;;;5041332;28;20024;-81
2023/03/02 03:04:00;;;;;;;19.60;10.60;;;2.90;99.90;;;;;;5041847;28;20060;-81
2023/03/02 03:06:29;;;;;;;22.42;11.55;;;;;;;;;;5024607;28;20025;-82
2023/03/02 03:08:55;;;;;;;21.58;12.57;;;;;;;;;;5046626;28;20381;-82
2023/03/02 03:11:26;;;;;;;21.17;11.32;;;2.80;99.90;;;;;;5037361;28;20028;-82
2023/03/02 03:14:08;;;;;;;22.23;11.82;;;2.80;99.90;;;;;;5035320;28;20025;-82
2023/03/02 03:16:36;;;;;;;24.77;12.00;;;2.80;99.90;;;;;;5043551;28;20031;-82
2023/03/02 03:19:09;;;;;;;22.27;11.45;;;2.70;99.90;;;;;;5033844;28;20034;-82
2023/03/02 03:21:36;;;;;;;18.55;10.50;;;;;;;;;;5035596;28;20083;-83
2023/03/02 03:24:05;;;;;;;22.20;11.38;;;2.70;99.90;;;;;;5053267;28;20037;-83
2023/03/02 03:26:31;;;;;;;18.77;11.25;;;;;;;;;;5035286;28;20026;-82
2023/03/02 03:28:57;;;;;;;21.38;11.52;;;;;;;;;;5037382;28;20025;-82
2023/03/02 03:31:26;;;;;;;23.02;11.65;;;2.70;99.90;;;;;;5028358;28;20024;-83
2023/03/02 03:33:55;;;;;;;22.98;11.65;;;2.70;99.90;;;;;;5038013;28;20084;-81
2023/03/02 03:36:23;;;;;;;22.30;11.00;;;2.60;99.90;;;;;;5029746;28;20052;-82
2023/03/02 03:38:49;;;;;;;22.33;11.95;;;;;;;;;;5026025;28;20032;-81
2023/03/02 03:41:16;;;;;;;21.85;11.02;;;;;;;;;;5023932;28;20033;-81
2023/03/02 03:43:43;;;;;;;22.08;11.15;;;2.70;99.90;;;;;;5018143;28;20498;-81
2023/03/02 03:46:09;;;;;;;21.52;11.80;;;;;;;;;;5020859;28;20029;-82
2023/03/02 03:48:36;;;;;;;23.27;10.50;;;;;;;;;;5022086;28;20052;-82
2023/03/02 03:51:02;;;;;;;21.33;11.20;;;;;;;;;;5038640;28;20506;-83
2023/03/02 03:53:28;;;;;;;22.55;11.18;;;;;;;;;;5018364;28;20068;-83
2023/03/02 03:55:58;;;;;;;23.88;11.73;;;2.80;99.90;;;;;;5033846;28;20029;-81
2023/03/02 03:58:25;;;;;;;21.58;11.00;;;2.70;99.90;;;;;;5021357;28;20048;-81
2023/03/02 04:00:52;;;;;;;21.80;11.90;;;4.90;99.90;;;;;;5015298;28;20041;-82
2023/03/02 04:03:25;;;;;;;27.83;11.88;;;2.70;99.90;;;;;;5014622;28;20068;-81
2023/03/02 04:05:51;;;;;;;23.17;11.82;;;;;;;;;;5018842;28;20025;-81
2023/03/02 04:08:19;;;;;;;19.65;10.07;;;2.70;99.90;;;;;;5028762;28;20083;-80
2023/03/02 04:10:46;;;;;;;28.38;13.00;;;;;;;;;;5016648;28;20025;-80
2023/03/02 04:13:12;;;;;;;20.88;10.85;;;;;;;;;;5012079;28;20030;-81
2023/03/02 04:15:40;;;;;;;23.73;12.57;;;2.60;99.90;;;;;;5014943;28;20029;-82
2023/03/02 04:18:06;;;;;;;24.67;11.90;;;;;;;;;;5029958;28;20037;-81
2023/03/02 04:20:33;;;;;;;22.30;12.27;;;;;;;;;;5013256;28;20600;-82
2023/03/02 04:22:59;;;;;;;22.55;12.30;;;;;;;;;;5033806;28;20053;-82
2023/03/02 04:27:54;;;;;;;22.95;11.88;;;;;;;;;;4988422;28;20134;-82
2023/03/02 04:30:24;;;;;;;21.88;12.05;;;2.60;99.90;;;;;;4985291;28;20030;-85
2023/03/02 04:32:53;;;;;;;23.70;11.93;;;2.60;99.90;;;;;;4988805;28;20063;-80
2023/03/02 04:35:26;;;;;;;25.98;11.82;;;2.50;99.90;;;;;;4970870;28;20403;-82
2023/03/02 04:37:53;;;;;;;20.50;11.60;;;2.40;99.90;;;;;;4986181;28;20110;-82
2023/03/02 04:40:26;;;;;;;24.80;11.80;;;2.40;99.90;;;;;;4985503;28;20058;-81
2023/03/02 04:42:56;;;;;;;;;;;2.30;99.90;;;;;;4976059;28;20049;-82
2023/03/02 04:45:24;;;;;;;25.98;11.82;;;2.30;99.90;;;;;;4983106;28;20374;-82
2023/03/02 04:48:14;;;;;;;24.05;12.32;;;2.30;99.90;;;;;;4984471;28;20022;-83
2023/03/02 04:50:44;;;;;;;26.80;12.35;;;2.20;99.90;;;;;;4985110;28;20053;-82
2023/03/02 04:53:56;;;;;;;26.45;13.15;;;2.20;99.90;;;;;;4989571;28;20038;-82
2023/03/02 04:56:25;;;;;;;25.02;11.80;;;2.20;99.90;;;;;;4973169;28;20479;-81
2023/03/02 04:59:02;;;;;;;26.65;12.02;;;2.10;99.90;;;;;;4970751;28;20030;-83
2023/03/02 05:01:34;;;;;;;23.48;12.85;;;2.20;99.90;;;;;;4967491;28;20043;-82
2023/03/02 05:04:05;;;;;;;23.48;12.32;;;2.10;99.90;;;;;;4972010;28;20034;-82
2023/03/02 05:06:57;;;;;;;23.65;11.93;;;2.10;99.90;;;;;;4975914;28;20025;-82
2023/03/02 05:09:52;;;;;;;25.75;12.15;;;2.10;99.90;;;;;;4980582;28;20030;-82
2023/03/02 05:12:26;;;;;;;24.65;12.40;;;2.10;99.90;;;;;;4972801;28;20098;-82
2023/03/02 05:15:02;;;;;;;22.35;12.40;;;2.10;99.90;;;;;;4975803;28;20383;-84
2023/03/02 05:18:03;;;;;;;22.50;11.90;;;2.10;99.90;;;;;;4984099;28;20419;-81
2023/03/02 05:20:56;;;;;;;26.77;12.50;;;2.10;99.90;;;;;;4965240;28;20053;-84
2023/03/02 05:23:49;;;;;;;23.80;11.93;;;2.10;99.90;;;;;;4964165;28;20069;-82
2023/03/02 05:27:18;;;;;;;25.83;12.63;;;2.10;99.90;;;;;;4972542;28;20049;-82
2023/03/02 05:29:51;;;;;;;24.75;12.15;;;2.00;99.90;;;;;;4988385;28;20038;-82
2023/03/02 05:32:18;;;;;;;25.38;12.35;;;2.00;99.90;;;;;;4946175;28;20097;-84
2023/03/02 05:34:44;;;;;;;23.23;12.60;;;2.00;99.90;;;;;;4970315;28;20109;-81
2023/03/02 05:37:11;;;;;;;26.75;13.05;;;2.00;99.90;;;;;;4968242;28;21489;-80
2023/03/02 05:39:38;;;;;;;27.15;13.00;;;2.00;99.90;;;;;;4974894;28;20076;-82
2023/03/02 05:42:05;;;;;;;21.75;11.68;;;2.00;99.90;;;;;;4977651;28;20030;-82
2023/03/02 05:44:32;;;;;;;24.13;13.23;;;2.00;99.90;;;;;;4971917;28;20034;-83
2023/03/02 05:46:58;;;;;;;25.50;12.45;;;1.90;99.90;;;;;;4958934;28;20419;-81
2023/03/02 05:49:25;;;;;;;24.13;12.18;;;1.90;99.90;;;;;;4992578;28;20061;-81
2023/03/02 05:51:51;;;;;;;25.90;13.45;;;2.10;99.90;;;;;;4968221;28;20054;-84
2023/03/02 05:54:17;;;;;;;24.88;12.52;;;1.90;99.90;;;;;;4976044;28;20467;-80
2023/03/02 05:56:42;;;;;;;25.73;13.40;;;1.90;99.90;;;;;;4963096;28;20034;-84
2023/03/02 05:59:08;;;;;;;26.75;13.35;;;2.20;99.90;;;;;;4984142;28;20046;-85
2023/03/02 06:01:35;;;;;;;26.65;13.65;;;1.90;99.90;;;;;;4969681;28;20066;-82
2023/03/02 06:04:01;;;;;;;28.15;13.10;;;3.20;99.90;;;;;;4974499;28;20035;-83
2023/03/02 06:06:27;;;;;;;24.23;12.70;;;2.00;99.90;;;;;;4986051;28;20026;-84
2023/03/02 06:08:53;;;;;;;23.02;12.65;;;2.80;99.90;;;;;;4974042;28;20030;-81
2023/03/02 06:11:18;;;;;;;23.92;12.57;;;2.80;99.90;;;;;;4972730;28;20058;-84
2023/03/02 06:13:44;;;;;;;25.17;11.93;;;2.80;99.90;;;;;;4973011;28;20065;-81
2023/03/02 06:16:10;;;;;;;26.88;13.32;;;2.20;99.90;;;;;;4977180;28;20026;-81
2023/03/02 06:18:36;;;;;;;22.20;12.02;;;2.30;99.90;;;;;;4971472;28;20027;-82
2023/03/02 06:21:02;;;;;;;23.40;12.55;;;2.30;99.90;;;;;;4982552;28;20046;-82
2023/03/02 06:23:28;;;;;;;25.73;12.70;;;2.30;99.90;;;;;;4981526;28;20050;-82
2023/03/02 06:25:54;;;;;;;23.50;12.40;;;2.20;99.90;;;;;;4989693;28;20037;-83
2023/03/02 06:28:20;;;;;;;25.40;12.93;;;4.00;99.90;;;;;;4978115;28;20066;-81
2023/03/02 06:30:47;;;;;;;23.50;12.38;;;4.40;99.90;;;;;;4978901;28;20019;-84
2023/03/02 06:33:18;;;;;;;22.70;12.18;;;2.30;99.90;;;;;;4978160;28;20030;-81
2023/03/02 06:35:44;;;;;;;25.60;13.05;;;2.30;99.90;;;;;;4975349;28;20027;-82
2023/03/02 06:38:10;;;;;;;24.98;12.15;;;2.30;99.90;;;;;;4973849;28;20030;-81
2023/03/02 06:40:36;;;;;;;25.58;13.02;;;2.30;99.90;;;;;;4981251;28;20030;-83
2023/03/02 06:43:01;;;;;;;23.40;12.77;;;2.30;99.90;;;;;;4984665;28;20042;-83
2023/03/02 06:45:28;;;;;;;25.40;13.02;;;2.30;99.90;;;;;;4984662;28;20056;-83
2023/03/02 06:47:54;;;;;;;23.65;12.32;;;2.30;99.90;;;;;;4990559;28;20034;-83
2023/03/02 06:50:19;;;;;;;25.50;12.93;;;3.80;99.90;;;;;;5011123;28;20026;-84
2023/03/02 06:52:46;;;;;;;26.45;12.73;;;2.40;99.90;;;;;;4995411;28;20026;-80
2023/03/02 06:55:12;;;;;;;25.45;13.52;;;2.40;99.90;;;;;;4992773;28;20045;-86
2023/03/02 06:57:38;;;;;;;26.17;12.70;;;2.60;99.90;;;;;;4990899;28;20038;-82
2023/03/02 07:00:16;;;;;;;23.55;13.38;;;2.60;99.90;;;;;;4983985;28;20479;-82
2023/03/02 07:02:44;;;;;;;25.25;12.50;;;2.30;99.90;;;;;;4998816;28;20034;-85
2023/03/02 07:05:11;;;;;;;24.95;13.25;;;2.30;99.90;;;;;;4983675;28;20041;-83
2023/03/02 07:07:38;;;;;;;28.35;13.82;;;2.40;99.90;;;;;;4979790;28;20034;-81
2023/03/02 07:10:06;;;;;;;24.45;12.98;;;2.40;99.90;;;;;;4964121;28;20067;-79
2023/03/02 07:12:32;;;;;;;22.23;12.85;;;2.40;99.90;;;;;;4984070;28;20026;-83
2023/03/02 07:14:57;;;;;;;25.98;13.35;;;2.40;99.90;;;;;;4980461;28;20041;-81
2023/03/02 07:17:23;;;;;;;22.20;11.95;;;2.60;99.90;;;;;;4977757;28;20348;-80
2023/03/02 07:19:49;;;;;;;25.70;12.70;;;2.50;99.90;;;;;;4973430;28;20034;-81
2023/03/02 07:22:14;;;;;;;26.35;12.88;;;2.50;99.90;;;;;;4976827;28;20090;-83
2023/03/02 07:24:40;;;;;;;25.20;12.93;;;2.50;99.90;;;;;;4989721;28;20034;-81
2023/03/02 07:27:05;;;;;;;27.00;13.10;;;3.50;99.90;;;;;;4982802;28;20456;-78
2023/03/02 07:29:31;;;;;;;27.33;13.20;;;2.60;99.90;;;;;;4978915;28;20041;-81
2023/03/02 07:31:59;;;;;;;25.83;13.80;;;3.30;99.90;;;;;;4984491;28;20022;-82
2023/03/02 07:34:26;;;;;;;25.40;12.90;;;3.30;99.90;;;;;;4984750;28;20030;-81
2023/03/02 07:36:52;;;;;;;28.45;14.25;;;2.80;99.90;;;;;;4983989;28;20031;-83
2023/03/02 07:39:18;;;;;;;24.98;13.50;;;3.80;99.90;;;;;;4982023;28;20031;-81
2023/03/02 07:41:44;;;;;;;25.02;13.57;;;3.70;99.90;;;;;;4999051;28;20072;-83
2023/03/02 07:44:10;;;;;;;27.17;13.90;;;3.30;99.90;;;;;;4978912;28;20069;-81
2023/03/02 07:46:35;;;;;;;27.10;12.95;;;3.00;99.90;;;;;;4977371;28;20118;-81
2023/03/02 07:49:01;;;;;;;25.65;13.25;;;2.90;99.90;;;;;;4979466;28;20035;-85
2023/03/02 07:51:27;;;;;;;26.67;12.88;;;3.00;99.90;;;;;;4990124;28;20256;-78
2023/03/02 07:53:53;;;;;;;25.40;12.50;;;4.70;99.90;;;;;;4976013;28;20089;-82
2023/03/02 07:56:19;;;;;;;24.15;13.10;;;4.40;99.90;;;;;;4992326;28;20030;-81
2023/03/02 07:58:45;;;;;;;23.52;12.95;;;4.70;99.90;;;;;;5000064;28;20014;-83
2023/03/02 08:01:11;;;;;;;21.13;11.52;;;4.80;99.90;;;;;;4985522;28;20536;-84
2023/03/02 08:03:37;;;;;;;25.15;12.48;;;2.90;99.90;;;;;;4979991;28;20077;-81
2023/03/02 08:06:08;;;;;;;22.33;12.07;;;3.40;99.90;;;;;;4981008;28;20038;-80
2023/03/02 08:08:34;;;;;;;22.95;11.55;;;3.60;99.90;;;;;;4978834;28;20030;-81
2023/03/02 08:11:08;;;;;;;26.05;12.73;;;4.70;99.90;;;;;;4974404;28;20038;-80
2023/03/02 08:13:33;;;;;;;26.88;13.57;;;3.60;99.90;;;;;;4980495;28;20030;-81
2023/03/02 08:16:00;;;;;;;25.60;13.13;;;3.70;99.90;;;;;;4984527;28;20088;-81
2023/03/02 08:18:26;;;;;;;24.20;12.05;;;3.70;99.90;;;;;;4976208;28;20057;-79
2023/03/02 08:20:53;;;;;;;22.35;12.73;;;4.30;99.90;;;;;;4980564;28;20030;-78
2023/03/02 08:23:19;;;;;;;26.25;13.60;;;3.70;99.90;;;;;;4991681;28;20121;-82
2023/03/02 08:25:45;;;;;;;26.00;13.32;;;3.60;99.90;;;;;;4985770;28;20072;-80
2023/03/02 08:28:10;;;;;;;29.90;12.80;;;3.70;99.90;;;;;;4982267;28;20030;-81
2023/03/02 08:30:36;;;;;;;24.35;12.55;;;3.80;99.90;;;;;;4977917;28;20061;-79
2023/03/02 08:33:02;;;;;;;27.13;13.82;;;3.80;99.90;;;;;;4983759;28;20128;-80
2023/03/02 08:35:27;;;;;;;23.67;12.35;;;3.90;99.90;;;;;;4987516;28;20030;-83
2023/03/02 08:37:53;;;;;;;23.38;12.32;;;4.30;99.90;;;;;;4970404;28;20042;-84
2023/03/02 08:40:19;;;;;;;19.85;12.13;;;5.20;99.90;;;;;;4982587;28;20102;-80
2023/03/02 08:42:45;;;;;;;24.27;12.45;;;4.00;99.90;;;;;;4976334;28;20034;-80
2023/03/02 08:45:11;;;;;;;22.27;12.60;;;4.10;99.90;;;;;;4978244;28;20565;-81
2023/03/02 08:47:37;;;;;;;24.65;12.60;;;4.40;99.90;;;;;;4997859;28;20030;-80
2023/03/02 08:50:04;;;;;;;25.35;12.13;;;4.60;99.90;;;;;;4981907;28;20065;-81
2023/03/02 08:52:33;;;;;;;27.52;13.80;;;4.20;99.90;;;;;;4975814;28;20092;-78
2023/03/02 08:54:59;;;;;;;25.30;13.13;;;4.20;99.90;;;;;;4978515;28;20031;-78
2023/03/02 08:57:24;;;;;;;23.63;12.55;;;4.90;99.90;;;;;;4985120;28;20038;-81
2023/03/02 08:59:51;;;;;;;26.77;13.25;;;4.40;99.90;;;;;;4997328;28;20162;-78
2023/03/02 09:02:17;;;;;;;25.20;12.75;;;6.10;99.90;;;;;;4993593;28;20060;-80
2023/03/02 09:04:43;;;;;;;24.33;13.07;;;5.20;99.90;;;;;;4991667;28;20039;-81
2023/03/02 09:07:09;;;;;;;20.80;11.45;;;5.20;99.90;;;;;;4979224;28;20066;-85
2023/03/02 09:09:34;;;;;;;25.17;12.20;;;3.80;99.90;;;;;;4987537;28;20084;-84
2023/03/02 09:12:00;;;;;;;23.25;12.32;;;5.00;99.90;;;;;;4996780;28;20472;-79
2023/03/02 09:14:26;;;;;;;23.58;11.90;;;6.90;99.90;;;;;;4987973;28;20031;-85
2023/03/02 09:16:52;;;;;;;21.10;12.07;;;6.20;99.90;;;;;;4986411;28;21747;-83
2023/03/02 09:19:18;;;;;;;28.27;13.15;;;5.30;99.90;;;;;;4983866;28;20030;-81
2023/03/02 09:21:44;;;;;;;24.52;11.82;;;5.40;99.90;;;;;;4981763;28;20093;-82
2023/03/02 09:24:10;;;;;;;21.52;11.20;;;6.50;99.90;;;;;;4977012;28;20058;-83
2023/03/02 09:26:37;;;;;;;21.67;10.82;;;6.00;99.90;;;;;;4985437;28;20085;-84
2023/03/02 09:29:03;;;;;;;23.13;11.50;;;6.00;99.90;;;;;;4981531;28;20038;-83
2023/03/02 09:31:29;;;;;;;22.83;12.07;;;6.30;99.90;;;;;;4990341;28;20037;-81
2023/03/02 09:33:55;;;;;;;23.05;11.55;;;6.60;99.90;;;;;;4981187;28;20459;-81
2023/03/02 09:36:23;;;;;;;22.30;12.23;;;5.80;99.90;;;;;;4982304;28;20030;-78
2023/03/02 09:38:49;;;;;;;22.17;12.02;;;6.70;99.90;;;;;;4982911;28;20065;-80
2023/03/02 09:41:30;;;;;;;19.65;9.88;;;7.00;99.90;;;;;;4982136;28;20094;-83
2023/03/02 09:44:32;;;;;;;23.35;11.73;;;6.50;99.90;;;;;;4964796;28;20084;-81
2023/03/02 09:47:26;;;;;;;20.88;11.98;;;5.90;99.90;;;;;;4992089;28;20019;-81
2023/03/02 09:50:16;;;;;;;21.77;11.27;;;6.00;99.90;;;;;;4973838;28;20126;-82
2023/03/02 09:53:11;;;;;;;22.77;11.43;;;6.00;99.90;;;;;;4976276;28;20030;-82
2023/03/02 09:55:37;;;;;;;27.17;13.02;;;5.90;99.90;;;;;;4964778;28;20085;-84
2023/03/02 09:58:07;;;;;;;21.55;12.40;;;6.20;99.90;;;;;;4975277;28;20030;-83
2023/03/02 10:00:39;;;;;;;22.77;11.40;;;6.20;99.90;;;;;;4981313;28;20483;-81
2023/03/02 10:03:10;;;;;;;21.75;12.10;;;8.00;99.90;;;;;;4971739;28;20541;-81
2023/03/02 10:05:42;;;;;;;22.63;12.05;;;7.10;99.90;;;;;;4988723;28;20034;-83
2023/03/02 10:08:21;;;;;;;24.33;12.02;;;7.80;99.90;;;;;;4966408;28;20050;-80
2023/03/02 10:10:52;;;;;;;22.65;12.30;;;6.30;99.90;;;;;;4967572;28;20023;-81
2023/03/02 10:13:45;;;;;;;20.15;10.95;;;6.50;99.90;;;;;;4962455;28;20161;-84
2023/03/02 10:16:33;;;;;;;20.55;11.85;;;6.60;99.90;;;;;;4965079;28;20033;-82
2023/03/02 10:19:14;;;;;;;22.77;12.68;;;6.80;99.90;;;;;;4977552;28;20031;-82
2023/03/02 10:21:44;;;;;;;22.25;11.88;;;6.80;99.90;;;;;;4969090;28;20054;-82
2023/03/02 10:24:24;;;;;;;20.73;11.32;;;7.00;99.90;;;;;;4966573;28;20487;-83
2023/03/02 10:26:54;;;;;;;22.85;12.20;;;7.00;99.90;;;;;;4984354;28;20018;-82
2023/03/02 10:29:45;;;;;;;22.48;12.50;;;7.10;99.90;;;;;;4962233;28;20058;-81
2023/03/02 10:32:21;;;;;;;21.95;10.75;;;7.20;99.90;;;;;;4961985;28;20031;-83
2023/03/02 10:34:48;;;;;;;21.52;11.38;;;7.20;99.90;;;;;;4964163;28;20483;-84
2023/03/02 10:37:21;;;;;;;18.90;10.80;;;7.30;99.90;;;;;;4979759;28;20027;-83
2023/03/02 10:39:48;;;;;;;21.30;11.75;;;7.40;99.90;;;;;;4961970;28;20024;-83
2023/03/02 10:42:32;;;;;;;24.35;11.80;;;7.50;99.90;;;;;;4967596;28;20035;-82
2023/03/02 10:45:24;;;;;;;20.42;11.30;;;7.50;99.90;;;;;;4982185;28;20030;-81
2023/03/02 10:48:00;;;;;;;23.52;11.68;;;7.60;99.90;;;;;;4985488;28;20026;-83
2023/03/02 10:50:26;;;;;;;19.98;11.35;;;7.60;99.90;;;;;;4958745;28;20157;-82
2023/03/02 10:52:51;;;;;;;24.50;11.80;;;8.00;99.90;;;;;;4966875;28;20109;-81
2023/03/02 10:55:17;;;;;;;25.52;12.05;;;7.80;99.90;;;;;;4964960;28;20104;-81
2023/03/02 10:57:44;;;;;;;25.20;11.85;;;8.90;99.90;;;;;;4965488;28;20073;-81
2023/03/02 11:00:17;;;;;;;23.08;11.88;;;8.00;99.90;;;;;;4969851;28;20030;-83
2023/03/02 11:02:52;;;;;;;23.45;12.10;;;8.10;99.90;;;;;;4970547;28;20560;-81
2023/03/02 11:05:34;;;;;;;22.25;12.02;;;8.90;99.90;;;;;;4976764;28;20052;-83
2023/03/02 11:08:23;;;;;;;23.98;12.48;;;8.20;99.90;;;;;;4969768;28;20470;-84
2023/03/02 11:10:58;;;;;;;25.27;12.75;;;8.40;99.90;;;;;;4973927;28;20035;-83
2023/03/02 11:13:30;;;;;;;18.80;10.75;;;8.50;99.90;;;;;;4985210;28;20026;-81
2023/03/02 11:15:59;;;;;;;24.67;11.88;;;8.50;99.90;;;;;;4978737;28;20122;-86
2023/03/02 11:18:40;;;;;;;21.17;12.25;;;8.50;99.60;;;;;;4974193;28;20103;-83
2023/03/02 11:21:12;;;;;;;21.60;12.00;;;8.60;99.30;;;;;;4974401;28;20384;-81
2023/03/02 11:24:02;;;;;;;19.98;11.65;;;8.50;99.40;;;;;;4986586;28;20031;-83
2023/03/02 11:26:46;;;;;;;19.43;11.07;;;8.60;99.40;;;;;;4984377;28;20036;-81
2023/03/02 11:29:36;;;;;;;20.02;11.85;;;8.70;99.00;;;;;;4979026;28;20058;-82
2023/03/02 11:32:07;;;;;;;20.42;11.50;;;9.00;99.40;;;;;;4983512;28;20061;-83
2023/03/02 11:34:39;;;;;;;21.65;12.25;;;8.80;99.20;;;;;;4985590;28;20476;-83
2023/03/02 11:37:15;;;;;;;22.30;12.05;;;9.00;98.80;;;;;;4979519;28;20041;-84
2023/03/02 11:39:47;;;;;;;21.50;11.57;;;8.70;98.70;;;;;;4977233;28;20023;-80
2023/03/02 11:42:20;;;;;;;19.95;11.70;;;8.80;98.80;;;;;;4993384;28;20209;-80
2023/03/02 11:44:47;;;;;;;19.67;12.02;;;9.80;99.40;;;;;;4972462;28;20030;-80
2023/03/02 11:47:14;;;;;;;19.85;11.25;;;8.90;98.90;;;;;;4974226;28;20058;-81
2023/03/02 11:49:47;;;;;;;20.90;12.48;;;9.30;98.40;;;;;;4974865;28;20026;-81
2023/03/02 11:52:21;;;;;;;19.08;11.35;;;10.10;98.70;;;;;;4976401;28;20033;-81
2023/03/02 11:55:03;;;;;;;24.17;11.68;;;9.20;98.50;;;;;;4968543;28;20038;-82
2023/03/02 11:57:35;;;;;;;23.73;12.48;;;9.20;98.10;;;;;;4989110;28;20084;-81
2023/03/02 12:00:06;;;;;;;19.05;11.57;;;10.00;98.70;;;;;;4990732;28;20062;-85
2023/03/02 12:02:32;;;;;;;20.20;11.48;;;;;;;;;;4972180;28;20054;-82
2023/03/02 12:05:23;;;;;;;18.52;10.63;;;9.50;97.80;;;;;;4979136;28;20531;-81
2023/03/02 12:08:39;;;;;;;21.02;12.05;;;9.90;97.80;;;;;;4989735;28;20030;-82
2023/03/02 12:11:17;;;;;;;20.02;11.77;;;9.50;97.50;;;;;;4989223;28;20476;-81
2023/03/02 12:14:00;;;;;;;22.92;11.63;;;9.40;97.80;;;;;;4978085;28;20025;-82
2023/03/02 12:16:41;;;;;;;19.00;11.15;;;9.40;98.00;;;;;;4973251;28;20034;-81
2023/03/02 12:19:28;;;;;;;19.50;11.50;;;9.50;97.50;;;;;;4976378;28;20027;-81
2023/03/02 12:22:07;;;;;;;18.58;10.82;;;9.50;97.70;;;;;;4979824;28;20019;-81
2023/03/02 12:24:35;;;;;;;19.70;11.23;;;9.60;97.70;;;;;;4986427;28;20030;-81
2023/03/02 12:27:06;;;;;;;19.42;11.65;;;9.80;97.50;;;;;;4985198;28;20446;-81
2023/03/02 12:29:43;;;;;;;21.17;11.77;;;9.90;97.70;;;;;;4986777;28;20126;-82
2023/03/02 12:32:28;;;;;;;20.27;11.18;;;10.80;97.70;;;;;;4976549;28;20935;-81
2023/03/02 12:34:53;;;;;;;19.08;10.90;;;9.90;97.50;;;;;;4976664;28;20291;-82
2023/03/02 12:37:24;;;;;;;19.52;11.75;;;10.20;97.40;;;;;;4987719;28;20034;-81
2023/03/02 12:40:25;;;;;;;19.42;10.98;;;10.20;97.00;;;;;;5001186;28;20089;-84
2023/03/02 12:43:04;;;;;;;20.15;11.27;;;10.30;96.70;;;;;;4959301;28;20042;-80
2023/03/02 12:45:57;;;;;;;17.40;10.30;;;10.30;96.50;;;;;;5001148;28;20036;-84
2023/03/02 12:48:31;;;;;;;21.73;11.02;;;10.40;96.40;;;;;;4988668;28;20023;-86
2023/03/02 12:51:01;;;;;;;18.77;10.18;;;10.50;96.20;;;;;;4995653;28;20066;-82
2023/03/02 12:53:28;;;;;;;17.02;11.05;;;10.50;96.40;;;;;;4982506;28;20027;-81
2023/03/02 12:55:53;;;;;;;20.20;10.95;;;10.50;96.50;;;;;;4983769;28;20039;-83
2023/03/02 12:58:26;;;;;;;18.30;10.98;;;10.60;96.90;;;;;;4981421;28;20039;-83
2023/03/02 13:00:58;;;;;;;17.17;10.50;;;10.60;96.40;;;;;;4982589;28;21045;-82
2023/03/02 13:03:26;;;;;;;19.35;10.77;;;10.60;96.20;;;;;;4984096;28;20038;-80
2023/03/02 13:06:09;;;;;;;19.38;11.13;;;10.70;96.20;;;;;;4989853;28;20035;-82
2023/03/02 13:08:35;;;;;;;17.55;9.68;;;10.80;96.00;;;;;;4997362;28;20030;-79
2023/03/02 13:11:02;;;;;;;18.27;10.43;;;10.80;96.00;;;;;;4990728;28;20045;-85
2023/03/02 13:13:41;;;;;;;21.58;11.13;;;10.70;95.60;;;;;;4970405;28;20033;-82
2023/03/02 13:16:25;;;;;;;18.52;10.35;;;10.60;95.70;;;;;;4980751;28;20113;-80
2023/03/02 13:18:55;;;;;;;17.38;10.25;;;10.70;96.10;;;;;;4982000;28;20040;-82